Time;durP1;ratioP1;P1;durP2;ratioP2;P2;SDS_P1;SDS_P2;PMS_P1;PMS_P2;Temp;Humidity;BMP_temperature;BMP_pressure;BME280_temperature;BME280_humidity;BME280_pressure;Samples;Min_cycle;Max_cycle;Signal;HPM_P1;HPM_P2
2022/02/10 00:13:08;;;;;;;3.42;0.82;;;19.70;99.90;;;;;;5014559;28;20520;-57
2022/02/10 00:21:33;;;;;;;0.30;0.30;;;19.60;99.90;;;;;;5022526;28;20045;-59
2022/02/10 00:35:13;;;;;;;0.40;0.40;;;19.60;99.90;;;;;;5028065;28;20493;-60
2022/02/10 00:37:57;;;;;;;0.40;0.40;;;19.60;99.90;;;;;;5030714;28;20128;-59
2022/02/10 00:40:30;;;;;;;0.40;0.40;;;19.60;99.90;;;;;;5020275;28;20312;-58
2022/02/10 00:42:59;;;;;;;0.65;0.65;;;19.60;99.90;;;;;;5026245;28;20060;-55
2022/02/10 00:45:30;;;;;;;0.32;0.32;;;19.50;99.90;;;;;;5021106;28;20061;-60
2022/02/10 00:48:02;;;;;;;0.30;0.30;;;19.60;99.90;;;;;;5018283;28;20064;-56
2022/02/10 00:50:33;;;;;;;1.23;0.77;;;19.50;99.90;;;;;;5017452;28;20513;-58
2022/02/10 00:53:08;;;;;;;0.40;0.40;;;19.50;99.90;;;;;;5021454;28;20442;-56
2022/02/10 00:55:38;;;;;;;0.38;0.38;;;19.50;99.90;;;;;;5017752;28;20053;-57
2022/02/10 00:58:09;;;;;;;0.77;0.77;;;19.50;99.90;;;;;;5018148;28;20050;-60
2022/02/10 01:31:15;;;;;;;0.40;0.40;;;19.40;99.90;;;;;;5021684;28;20056;-60
2022/02/10 01:33:43;;;;;;;0.52;0.52;;;19.40;99.90;;;;;;5014356;28;20064;-60
2022/02/10 01:36:10;;;;;;;1.35;0.65;;;19.40;99.90;;;;;;4999141;28;20058;-57
2022/02/10 01:38:38;;;;;;;0.50;0.50;;;19.40;99.90;;;;;;5015036;28;20425;-55
2022/02/10 02:05:54;;;;;;;5.47;1.50;;;19.30;99.90;;;;;;5010336;28;20049;-57
2022/02/10 02:08:27;;;;;;;0.38;0.38;;;19.30;99.90;;;;;;5012649;28;20054;-55
2022/02/10 02:10:54;;;;;;;1.95;0.70;;;19.30;99.90;;;;;;5008723;28;20065;-63
2022/02/10 02:13:22;;;;;;;0.50;0.50;;;19.30;99.90;;;;;;5010750;28;20069;-60
2022/02/10 02:15:51;;;;;;;0.50;0.50;;;19.30;99.90;;;;;;5001650;28;20506;-61
2022/02/10 02:18:19;;;;;;;1.02;1.00;;;19.30;99.90;;;;;;5013351;28;20045;-59
2022/02/10 02:20:49;;;;;;;0.40;0.40;;;19.20;99.90;;;;;;5013251;28;20038;-57
2022/02/10 02:23:19;;;;;;;0.40;0.40;;;19.10;99.90;;;;;;5016294;28;20056;-62
2022/02/10 02:25:55;;;;;;;0.60;0.60;;;19.10;99.90;;;;;;5016725;28;20049;-60
2022/02/10 02:28:23;;;;;;;0.88;0.88;;;19.10;99.90;;;;;;5023369;28;20592;-60
2022/02/10 02:30:57;;;;;;;3.95;1.92;;;19.10;99.90;;;;;;5015568;28;20052;-59
2022/02/10 03:06:33;;;;;;;1.67;1.00;;;19.00;99.90;;;;;;5025004;28;20045;-62
2022/02/10 03:09:07;;;;;;;0.73;0.63;;;19.00;99.90;;;;;;5025414;28;20049;-61
2022/02/10 03:11:37;;;;;;;0.40;0.40;;;19.00;99.90;;;;;;5010603;28;20052;-62
2022/02/10 03:14:29;;;;;;;0.68;0.68;;;19.00;99.90;;;;;;5025656;28;20048;-62
2022/02/10 03:19:52;;;;;;;10.75;0.85;;;19.00;99.90;;;;;;5014500;28;20041;-58
2022/02/10 04:09:08;;;;;;;1.55;0.95;;;18.80;99.90;;;;;;4980468;28;20051;-60
2022/02/10 04:11:57;;;;;;;0.40;0.40;;;18.80;99.90;;;;;;4968761;28;20057;-60
2022/02/10 04:14:34;;;;;;;1.38;0.68;;;18.80;99.90;;;;;;4976960;28;20099;-59
2022/02/10 04:17:24;;;;;;;1.25;1.10;;;18.70;99.90;;;;;;4992598;28;20046;-60
2022/02/10 04:23:03;;;;;;;0.63;0.63;;;18.70;99.90;;;;;;4980491;28;20046;-57
2022/02/10 04:56:18;;;;;;;0.60;0.60;;;18.70;99.90;;;;;;4986998;28;20431;-60
2022/02/10 05:16:14;;;;;;;0.45;0.45;;;19.60;99.90;;;;;;5015458;28;20061;-60
2022/02/10 05:21:27;;;;;;;1.85;0.77;;;18.30;99.90;;;;;;5020627;28;20046;-60
2022/02/10 05:24:11;;;;;;;14.13;2.33;;;18.10;99.90;;;;;;5016918;28;20048;-59
2022/02/10 05:35:49;;;;;;;0.85;0.85;;;19.90;99.90;;;;;;5017611;28;20045;-62
2022/02/10 05:38:09;;;;;;;1.65;1.30;;;20.10;99.90;;;;;;5002408;28;20068;-63
2022/02/10 05:53:55;;;;;;;0.52;0.50;;;21.10;99.90;;;;;;5026996;28;19948;-63
2022/02/10 05:56:40;;;;;;;10.90;1.35;;;21.30;99.90;;;;;;5027436;28;20529;-59
2022/02/10 06:51:25;;;;;;;3.25;1.60;;;21.50;99.90;;;;;;5032879;28;20050;-63
2022/02/10 06:54:05;;;;;;;3.13;1.90;;;21.40;99.90;;;;;;5028516;28;20068;-58
2022/02/10 07:10:41;;;;;;;1.25;1.15;;;21.40;99.90;;;;;;5019862;28;20222;-66
2022/02/10 07:54:47;;;;;;;1.35;1.05;;;21.20;99.90;;;;;;5021070;28;20068;-59
2022/02/10 08:49:44;;;;;;;1.17;1.08;;;22.20;99.90;;;;;;5006150;28;20065;-66
2022/02/10 08:50:13;;;;;;;1.02;0.93;;;22.00;99.90;;;;;;5020479;28;20048;-61
2022/02/10 09:12:12;;;;;;;1.48;1.08;;;21.90;99.90;;;;;;5020702;28;20049;-63
2022/02/10 09:15:11;;;;;;;0.45;0.45;;;21.90;99.90;;;;;;5021330;28;20058;-65
2022/02/10 10:01:03;;;;;;;2.17;1.25;;;21.60;99.90;;;;;;5024914;28;20480;-64
2022/02/10 10:03:34;;;;;;;1.50;1.08;;;21.50;99.90;;;;;;5024739;28;20053;-63
2022/02/10 10:06:18;;;;;;;1.10;0.68;;;21.40;99.90;;;;;;5019116;28;20376;-60
2022/02/10 10:09:00;;;;;;;0.75;0.75;;;21.30;99.90;;;;;;5026091;28;20412;-63
2022/02/10 10:14:26;;;;;;;3.67;0.82;;;21.20;99.90;;;;;;5023546;28;20045;-61
2022/02/10 10:17:52;;;;;;;10.75;1.60;;;21.20;99.90;;;;;;5020579;28;20057;-60
2022/02/10 10:56:14;;;;;;;0.63;0.63;;;22.20;99.90;;;;;;5016810;28;20057;-63
2022/02/10 11:38:33;;;;;;;0.38;0.38;;;21.80;99.90;;;;;;5024846;28;20054;-64
2022/02/10 11:41:27;;;;;;;0.82;0.82;;;21.80;99.90;;;;;;5021968;28;20111;-62
2022/02/10 11:44:15;;;;;;;0.65;0.65;;;21.70;99.90;;;;;;5018005;28;20050;-63
2022/02/10 11:47:29;;;;;;;2.20;1.05;;;21.70;99.90;;;;;;5017721;28;20493;-64
2022/02/10 11:59:59;;;;;;;0.60;0.60;;;21.70;99.90;;;;;;5017388;28;20053;-65
2022/02/10 12:42:01;;;;;;;2.65;1.48;;;22.30;99.90;;;;;;5020067;28;20053;-62
2022/02/10 14:09:10;;;;;;;0.50;0.50;;;22.20;99.90;;;;;;5024161;28;20064;-63
2022/02/10 14:10:06;;;;;;;0.70;0.70;;;22.10;99.90;;;;;;5018910;28;20049;-60
2022/02/10 14:18:08;;;;;;;0.60;0.60;;;22.00;99.90;;;;;;5020793;28;20050;-64
2022/02/10 14:26:02;;;;;;;1.05;0.88;;;22.20;99.90;;;;;;5021536;28;20060;-63
2022/02/10 14:28:31;;;;;;;2.13;1.35;;;22.30;99.90;;;;;;5017625;28;20091;-61
2022/02/10 14:30:58;;;;;;;2.05;1.02;;;22.40;99.90;;;;;;5021539;28;20069;-65
2022/02/10 14:33:29;;;;;;;4.05;1.88;;;22.50;99.90;;;;;;5021616;28;20045;-60
2022/02/10 14:36:12;;;;;;;1.23;1.15;;;22.60;99.90;;;;;;5024959;28;20056;-63
2022/02/10 14:39:00;;;;;;;2.28;1.30;;;22.60;99.90;;;;;;5024605;28;20045;-62
2022/02/10 14:42:13;;;;;;;3.05;1.10;;;22.70;99.90;;;;;;5006699;28;20052;-64
2022/02/10 16:17:17;;;;;;;5.05;2.75;;;22.00;99.90;;;;;;5018165;28;20048;-64
2022/02/10 16:19:46;;;;;;;2.17;1.63;;;22.00;99.90;;;;;;5019840;28;20052;-63
2022/02/10 16:24:49;;;;;;;3.63;1.55;;;22.00;99.90;;;;;;5020624;28;20517;-59
2022/02/10 16:27:22;;;;;;;12.77;3.25;;;21.90;99.90;;;;;;5016869;28;20042;-63
2022/02/10 16:29:58;;;;;;;1.38;1.27;;;21.80;99.90;;;;;;5012094;28;20042;-61
2022/02/10 16:32:31;;;;;;;0.85;0.85;;;21.80;99.90;;;;;;5018151;28;20053;-61
2022/02/10 16:35:03;;;;;;;0.68;0.68;;;21.90;99.90;;;;;;5017976;28;20045;-65
2022/02/10 16:37:36;;;;;;;3.10;1.48;;;21.90;99.90;;;;;;4994518;28;20065;-66
2022/02/10 16:40:05;;;;;;;2.58;1.45;;;22.00;99.90;;;;;;5014378;28;20421;-64
2022/02/10 16:42:37;;;;;;;14.13;4.60;;;22.10;99.90;;;;;;4998059;28;20360;-62
2022/02/10 16:45:09;;;;;;;5.40;2.90;;;22.20;99.90;;;;;;5018518;28;20052;-61
2022/02/10 16:47:42;;;;;;;0.50;0.50;;;22.20;99.90;;;;;;5018038;28;20041;-62
2022/02/10 16:50:14;;;;;;;0.95;0.95;;;22.30;99.90;;;;;;5019370;28;20037;-65
2022/02/10 16:52:48;;;;;;;1.25;1.15;;;22.40;99.90;;;;;;5019596;28;20042;-63
2022/02/10 16:55:37;;;;;;;2.88;1.52;;;22.50;99.90;;;;;;5017562;28;20058;-66
2022/02/10 16:58:32;;;;;;;0.70;0.70;;;22.60;99.90;;;;;;5017739;28;20045;-59
2022/02/10 17:03:49;;;;;;;2.67;1.52;;;22.70;99.90;;;;;;5022655;28;20049;-61
2022/02/10 17:15:41;;;;;;;2.92;1.63;;;22.60;99.90;;;;;;5019242;28;20068;-62
2022/02/10 17:25:44;;;;;;;1.20;1.10;;;22.60;99.90;;;;;;5017188;28;20060;-62
2022/02/10 17:28:12;;;;;;;2.83;1.80;;;22.60;99.90;;;;;;5021053;28;20440;-61
2022/02/10 17:31:19;;;;;;;0.90;0.90;;;22.50;99.90;;;;;;5018439;28;20038;-63
2022/02/10 17:36:36;;;;;;;2.08;0.95;;;22.50;99.90;;;;;;5019872;28;20053;-61
2022/02/10 17:53:03;;;;;;;2.67;1.50;;;22.40;99.90;;;;;;5039328;28;20601;-62
2022/02/10 17:55:31;;;;;;;0.30;0.30;;;22.40;99.90;;;;;;5040448;28;20092;-61
2022/02/10 17:57:59;;;;;;;9.93;1.13;;;22.40;99.90;;;;;;5038871;28;20057;-66
2022/02/10 18:00:27;;;;;;;11.63;0.73;;;22.40;99.90;;;;;;5026142;28;20053;-59
2022/02/10 18:02:58;;;;;;;0.80;0.80;;;22.30;99.90;;;;;;5018243;28;20049;-60
2022/02/10 18:06:07;;;;;;;0.45;0.45;;;22.30;99.90;;;;;;5001074;28;20049;-60
2022/02/10 18:08:18;;;;;;;1.23;0.70;;;22.30;99.90;;;;;;5016084;28;20080;-62
2022/02/10 18:13:58;;;;;;;2.10;1.30;;;22.30;99.90;;;;;;4986866;28;20062;-62
2022/02/10 18:19:04;;;;;;;2.22;1.50;;;22.20;99.90;;;;;;5017187;28;20481;-62
2022/02/10 18:25:00;;;;;;;1.60;1.25;;;22.20;99.90;;;;;;5023835;28;20049;-63
2022/02/10 18:27:17;;;;;;;2.40;1.10;;;22.10;99.90;;;;;;5015308;28;20610;-62
2022/02/10 19:06:14;;;;;;;0.32;0.32;;;21.70;99.90;;;;;;5017778;28;20401;-63
2022/02/10 19:11:08;;;;;;;3.10;1.08;;;21.60;99.90;;;;;;5011596;28;20048;-63
2022/02/10 19:13:35;;;;;;;3.45;2.33;;;21.60;99.90;;;;;;5016032;28;20037;-64
2022/02/10 19:16:03;;;;;;;1.27;0.68;;;21.60;99.90;;;;;;5014692;28;20041;-64
2022/02/10 19:18:50;;;;;;;1.00;0.95;;;21.60;99.90;;;;;;5015898;28;20511;-62
2022/02/10 19:21:17;;;;;;;1.42;1.08;;;21.60;99.90;;;;;;5024168;28;20417;-65
2022/02/10 19:23:44;;;;;;;0.40;0.40;;;21.50;99.90;;;;;;5022896;28;20041;-67
2022/02/10 19:26:13;;;;;;;3.03;2.15;;;21.60;99.90;;;;;;5014707;28;20050;-68
2022/02/10 19:28:40;;;;;;;0.40;0.40;;;21.50;99.90;;;;;;4991912;28;20064;-62
2022/02/10 19:31:09;;;;;;;1.77;1.17;;;21.60;99.90;;;;;;5013475;28;20041;-64
2022/02/10 19:33:37;;;;;;;0.30;0.30;;;21.50;99.90;;;;;;5020151;28;20048;-66
2022/02/10 19:36:05;;;;;;;2.88;1.75;;;21.50;99.90;;;;;;5023426;28;20048;-62
2022/02/10 19:38:32;;;;;;;10.63;2.38;;;21.50;99.90;;;;;;5026660;28;20046;-63
2022/02/10 19:41:00;;;;;;;6.75;2.72;;;21.50;99.90;;;;;;5017638;28;20050;-63
2022/02/10 19:43:48;;;;;;;1.13;1.05;;;21.50;99.90;;;;;;5012588;28;20049;-61
2022/02/10 19:46:15;;;;;;;0.70;0.70;;;21.50;99.90;;;;;;5018121;28;20045;-61
2022/02/10 19:48:43;;;;;;;0.63;0.63;;;21.40;99.90;;;;;;5022212;28;20046;-64
2022/02/10 19:51:10;;;;;;;2.97;1.27;;;21.40;99.90;;;;;;5013711;28;20045;-63
2022/02/10 19:53:38;;;;;;;1.17;1.08;;;21.40;99.90;;;;;;5015292;28;20052;-62
2022/02/10 19:56:05;;;;;;;2.33;1.60;;;21.40;99.90;;;;;;5005674;28;20060;-62
2022/02/10 19:58:33;;;;;;;2.10;1.25;;;21.40;99.90;;;;;;5014988;28;20049;-64
2022/02/10 20:01:02;;;;;;;3.08;1.77;;;21.40;99.90;;;;;;5012007;28;20500;-62
2022/02/10 20:03:32;;;;;;;0.68;0.68;;;21.30;99.90;;;;;;5023959;28;20053;-64
2022/02/10 20:06:03;;;;;;;0.57;0.57;;;21.30;99.90;;;;;;5007421;28;20057;-62
2022/02/10 20:08:30;;;;;;;5.22;2.95;;;21.30;99.90;;;;;;5023010;28;20052;-60
2022/02/10 20:10:58;;;;;;;;;;;21.30;99.90;;;;;;5009870;28;20411;-64
2022/02/10 20:13:27;;;;;;;;;;;21.30;99.90;;;;;;5022055;28;19922;-65
2022/02/10 20:15:58;;;;;;;2.63;1.85;;;21.20;99.90;;;;;;5016124;28;20301;-62
2022/02/10 20:18:26;;;;;;;3.63;0.90;;;21.20;99.90;;;;;;5024572;28;20050;-62
2022/02/10 20:20:54;;;;;;;;;;;20.80;99.90;;;;;;5038330;28;20053;-64
2022/02/10 20:23:24;;;;;;;4.97;2.05;;;20.10;99.90;;;;;;5036175;28;19925;-60
2022/02/10 20:26:12;;;;;;;2.47;1.92;;;19.30;99.90;;;;;;5011799;28;20325;-61
2022/02/10 20:28:42;;;;;;;2.78;2.17;;;19.30;99.90;;;;;;5025667;28;20037;-62
2022/02/10 20:31:10;;;;;;;1.65;1.25;;;19.70;99.90;;;;;;5035139;28;20049;-61
2022/02/10 20:33:39;;;;;;;1.67;1.33;;;20.00;99.90;;;;;;5023430;28;20426;-62
2022/02/10 20:36:07;;;;;;;4.07;2.58;;;20.20;99.90;;;;;;5025659;28;20117;-62
2022/02/10 20:38:40;;;;;;;1.15;0.88;;;20.30;99.90;;;;;;4998581;28;20050;-64
2022/02/10 20:41:12;;;;;;;0.80;0.80;;;20.40;99.90;;;;;;5021623;28;20049;-58
2022/02/10 20:43:42;;;;;;;1.60;1.45;;;20.40;99.90;;;;;;5022496;28;20060;-62
2022/02/10 20:46:12;;;;;;;0.90;0.90;;;20.40;99.90;;;;;;5031173;28;20056;-61
2022/02/10 20:48:41;;;;;;;1.40;1.30;;;20.50;99.90;;;;;;5022810;28;20054;-60
2022/02/10 20:51:12;;;;;;;2.60;1.55;;;20.40;99.90;;;;;;5008989;28;20543;-61
2022/02/10 20:53:43;;;;;;;4.95;3.42;;;20.50;99.90;;;;;;5026383;28;20049;-61
2022/02/10 20:56:13;;;;;;;1.60;1.40;;;20.50;99.90;;;;;;5013909;28;20064;-61
2022/02/10 20:58:42;;;;;;;0.85;0.85;;;20.50;99.90;;;;;;5025193;28;20049;-61
2022/02/10 21:01:13;;;;;;;1.92;1.13;;;20.50;99.90;;;;;;5027609;28;20046;-61
2022/02/10 21:03:43;;;;;;;1.35;1.08;;;20.50;99.90;;;;;;5015730;28;20513;-63
2022/02/10 21:06:24;;;;;;;1.27;1.20;;;20.50;99.90;;;;;;5022172;28;20042;-66
2022/02/10 21:11:22;;;;;;;0.85;0.85;;;20.40;99.90;;;;;;5018679;28;20072;-64
2022/02/10 21:13:50;;;;;;;0.30;0.30;;;20.40;99.90;;;;;;5015172;28;20049;-62
2022/02/10 21:16:18;;;;;;;0.65;0.60;;;20.40;99.90;;;;;;5026340;28;20057;-69
2022/02/10 21:18:46;;;;;;;0.52;0.52;;;20.30;99.90;;;;;;5026809;28;20049;-62
2022/02/10 21:21:16;;;;;;;2.08;0.95;;;20.40;99.90;;;;;;5006287;28;20053;-62
2022/02/10 21:26:14;;;;;;;;;;;20.30;99.90;;;;;;5018257;28;20041;-61
2022/02/10 21:28:43;;;;;;;0.82;0.82;;;20.30;99.90;;;;;;5021285;28;19940;-63
2022/02/10 21:31:11;;;;;;;0.63;0.63;;;20.30;99.90;;;;;;5009002;28;20496;-62
2022/02/10 21:39:01;;;;;;;2.17;1.63;;;20.20;99.90;;;;;;5023850;28;20507;-64
2022/02/10 21:47:45;;;;;;;0.90;0.80;;;20.20;99.90;;;;;;5009892;28;20064;-64
2022/02/10 21:53:15;;;;;;;0.95;0.82;;;20.20;99.90;;;;;;5023114;28;20057;-62
2022/02/10 22:11:56;;;;;;;0.65;0.65;;;20.20;99.90;;;;;;5019339;28;20065;-62
2022/02/10 22:17:26;;;;;;;0.32;0.32;;;20.10;99.90;;;;;;5018036;28;20054;-59
2022/02/10 22:20:06;;;;;;;;;;;20.10;99.90;;;;;;5014272;28;20046;-61
2022/02/10 22:22:48;;;;;;;1.40;1.30;;;20.10;99.90;;;;;;5029132;28;20222;-62
2022/02/10 22:25:16;;;;;;;1.70;0.95;;;20.10;99.90;;;;;;5017440;28;20053;-62
2022/02/10 22:27:48;;;;;;;;;;;20.10;99.90;;;;;;5007172;28;20062;-64
2022/02/10 22:30:28;;;;;;;1.45;0.82;;;20.10;99.90;;;;;;5013436;28;19948;-61
2022/02/10 22:33:17;;;;;;;2.10;1.60;;;20.10;99.90;;;;;;5024075;28;20041;-62
2022/02/10 22:35:44;;;;;;;0.63;0.63;;;20.10;99.90;;;;;;5021229;28;20053;-58
2022/02/10 22:38:13;;;;;;;0.70;0.70;;;20.10;99.90;;;;;;5015650;28;20045;-62
2022/02/10 22:40:57;;;;;;;0.77;0.73;;;20.10;99.90;;;;;;5012399;28;20042;-61
2022/02/10 22:43:25;;;;;;;1.75;1.38;;;20.10;99.90;;;;;;5015866;28;20053;-61
2022/02/10 22:45:52;;;;;;;22.52;2.63;;;20.00;99.90;;;;;;5021052;28;20041;-63
2022/02/10 22:48:19;;;;;;;1.05;0.73;;;20.00;99.90;;;;;;5027366;28;20041;-62
2022/02/10 22:50:47;;;;;;;0.52;0.52;;;20.00;99.90;;;;;;5013537;28;20088;-63
2022/02/10 22:53:14;;;;;;;1.15;0.60;;;20.00;99.90;;;;;;5018578;28;20050;-65
2022/02/10 22:55:41;;;;;;;2.72;1.80;;;20.00;99.90;;;;;;5015106;28;20049;-61
2022/02/10 22:58:09;;;;;;;2.22;1.10;;;20.00;99.90;;;;;;5018175;28;20049;-61
2022/02/10 23:00:46;;;;;;;2.25;1.08;;;20.00;99.90;;;;;;5021468;28;20580;-61
2022/02/10 23:03:20;;;;;;;0.60;0.60;;;20.00;99.90;;;;;;5017261;28;20046;-61
2022/02/10 23:05:48;;;;;;;0.70;0.70;;;20.00;99.90;;;;;;4999316;28;20052;-60
2022/02/10 23:08:16;;;;;;;0.40;0.40;;;20.00;99.90;;;;;;5020161;28;20049;-63
2022/02/10 23:10:47;;;;;;;1.23;0.68;;;20.00;99.90;;;;;;5012250;28;20049;-61
2022/02/10 23:13:27;;;;;;;1.13;1.02;;;19.90;99.90;;;;;;5009847;28;20046;-62
2022/02/10 23:16:05;;;;;;;0.50;0.50;;;19.90;99.90;;;;;;5016229;28;20539;-62
2022/02/10 23:18:36;;;;;;;0.90;0.85;;;19.90;99.90;;;;;;5026744;28;20513;-61
2022/02/10 23:21:06;;;;;;;0.60;0.60;;;19.90;99.90;;;;;;5015240;28;20034;-63
2022/02/10 23:23:36;;;;;;;1.55;0.98;;;19.90;99.90;;;;;;5022736;28;20048;-59
2022/02/10 23:26:06;;;;;;;2.80;1.27;;;19.90;99.90;;;;;;5010301;28;20053;-60
2022/02/10 23:28:38;;;;;;;1.23;0.77;;;19.90;99.90;;;;;;5017380;28;20064;-62
2022/02/10 23:31:13;;;;;;;0.77;0.77;;;19.90;99.90;;;;;;5012944;28;20054;-61
2022/02/10 23:33:43;;;;;;;0.65;0.65;;;19.80;99.90;;;;;;5021267;28;20053;-63
2022/02/10 23:39:03;;;;;;;0.75;0.75;;;19.80;99.90;;;;;;5022334;28;20042;-60
2022/02/10 23:44:01;;;;;;;1.67;1.33;;;19.90;99.90;;;;;;5023238;28;20046;-63
2022/02/10 23:46:28;;;;;;;1.00;0.73;;;19.90;99.90;;;;;;5023502;28;20057;-61
2022/02/10 23:48:57;;;;;;;0.40;0.40;;;19.80;99.90;;;;;;4992504;28;20497;-59
2022/02/10 23:51:29;;;;;;;1.95;1.27;;;19.80;99.90;;;;;;5011998;28;20505;-61
2022/02/10 23:53:56;;;;;;;8.35;1.65;;;19.80;99.90;;;;;;5008493;28;20054;-63
2022/02/10 23:56:30;;;;;;;0.60;0.60;;;19.80;99.90;;;;;;5014084;28;20072;-63
2022/02/10 23:59:11;;;;;;;0.77;0.77;;;19.70;99.90;;;;;;5007004;28;20057;-61
